sensor_id;sensor_type;location;lat;lon;timestamp;pressure;altitude;pressure_sealevel;temperature;humidity
75447;BME280;64024;55.820;37.574;2023-08-01T00:00:19;98281.28;;;25.42;44.11
75447;BME280;64024;55.820;37.574;2023-08-01T00:02:45;98279.50;;;25.38;43.89
75447;BME280;64024;55.820;37.574;2023-08-01T00:05:12;98288.34;;;25.35;43.94
75447;BME280;64024;55.820;37.574;2023-08-01T00:07:39;98278.56;;;25.34;44.23
75447;BME280;64024;55.820;37.574;2023-08-01T00:10:06;98286.72;;;25.34;44.06
75447;BME280;64024;55.820;37.574;2023-08-01T00:12:32;98291.72;;;25.32;44.06
75447;BME280;64024;55.820;37.574;2023-08-01T00:14:58;98289.00;;;25.32;43.77
75447;BME280;64024;55.820;37.574;2023-08-01T00:17:25;98290.91;;;25.31;44.02
75447;BME280;64024;55.820;37.574;2023-08-01T00:19:51;98287.41;;;25.31;43.93
75447;BME280;64024;55.820;37.574;2023-08-01T00:22:16;98286.63;;;25.30;44.11
75447;BME280;64024;55.820;37.574;2023-08-01T00:24:42;98290.13;;;25.31;44.28
75447;BME280;64024;55.820;37.574;2023-08-01T00:27:09;98287.72;;;25.29;44.24
75447;BME280;64024;55.820;37.574;2023-08-01T00:29:36;98290.44;;;25.29;44.17
75447;BME280;64024;55.820;37.574;2023-08-01T00:32:02;98294.28;;;25.28;44.24
75447;BME280;64024;55.820;37.574;2023-08-01T00:34:29;98292.38;;;25.28;44.24
75447;BME280;64024;55.820;37.574;2023-08-01T00:36:57;98295.41;;;25.27;44.34
75447;BME280;64024;55.820;37.574;2023-08-01T00:39:23;98289.97;;;25.27;44.31
75447;BME280;64024;55.820;37.574;2023-08-01T00:41:50;98288.41;;;25.26;44.34
75447;BME280;64024;55.820;37.574;2023-08-01T00:44:16;98291.91;;;25.26;44.28
75447;BME280;64024;55.820;37.574;2023-08-01T00:46:42;98294.63;;;25.26;44.38
75447;BME280;64024;55.820;37.574;2023-08-01T00:49:09;98294.94;;;25.25;44.43
75447;BME280;64024;55.820;37.574;2023-08-01T00:51:35;98300.38;;;25.25;44.40
75447;BME280;64024;55.820;37.574;2023-08-01T00:54:01;98294.16;;;25.24;44.47
75447;BME280;64024;55.820;37.574;2023-08-01T00:56:27;98299.59;;;25.24;44.49
75447;BME280;64024;55.820;37.574;2023-08-01T00:58:54;98301.06;;;25.22;44.41
75447;BME280;64024;55.820;37.574;2023-08-01T01:01:21;98294.47;;;25.23;44.52
75447;BME280;64024;55.820;37.574;2023-08-01T01:03:48;98294.78;;;25.21;44.44
75447;BME280;64024;55.820;37.574;2023-08-01T01:06:19;98311.09;;;25.30;44.39
75447;BME280;64024;55.820;37.574;2023-08-01T01:08:49;98307.44;;;25.26;44.29
75447;BME280;64024;55.820;37.574;2023-08-01T01:11:15;98302.63;;;25.23;44.34
75447;BME280;64024;55.820;37.574;2023-08-01T01:13:41;98307.59;;;25.21;44.47
75447;BME280;64024;55.820;37.574;2023-08-01T01:16:07;98307.13;;;25.19;44.46
75447;BME280;64024;55.820;37.574;2023-08-01T01:18:34;98308.56;;;25.16;44.60
75447;BME280;64024;55.820;37.574;2023-08-01T01:21:01;98314.81;;;25.17;44.53
75447;BME280;64024;55.820;37.574;2023-08-01T01:23:27;98308.13;;;25.14;44.42
75447;BME280;64024;55.820;37.574;2023-08-01T01:25:55;98308.13;;;25.14;44.70
75447;BME280;64024;55.820;37.574;2023-08-01T01:28:25;98310.03;;;25.14;44.78
75447;BME280;64024;55.820;37.574;2023-08-01T01:30:53;98311.97;;;25.13;44.74
75447;BME280;64024;55.820;37.574;2023-08-01T01:33:21;98302.19;;;25.12;44.81
75447;BME280;64024;55.820;37.574;2023-08-01T01:35:47;98303.31;;;25.11;44.87
75447;BME280;64024;55.820;37.574;2023-08-01T01:38:13;98303.66;;;25.10;44.93
75447;BME280;64024;55.820;37.574;2023-08-01T01:40:39;98299.03;;;25.10;45.17
75447;BME280;64024;55.820;37.574;2023-08-01T01:43:06;98305.88;;;25.08;45.27
75447;BME280;64024;55.820;37.574;2023-08-01T01:45:33;98298.50;;;25.08;45.06
75447;BME280;64024;55.820;37.574;2023-08-01T01:47:59;98300.44;;;25.08;45.02
75447;BME280;64024;55.820;37.574;2023-08-01T01:50:25;98307.78;;;25.07;45.26
75447;BME280;64024;55.820;37.574;2023-08-01T01:52:52;98306.66;;;25.08;45.12
75447;BME280;64024;55.820;37.574;2023-08-01T01:55:18;98299.31;;;25.09;45.06
75447;BME280;64024;55.820;37.574;2023-08-01T01:57:45;98299.31;;;25.09;45.14
75447;BME280;64024;55.820;37.574;2023-08-01T02:00:11;98301.75;;;25.10;45.37
75447;BME280;64024;55.820;37.574;2023-08-01T02:02:37;98309.56;;;25.12;45.13
75447;BME280;64024;55.820;37.574;2023-08-01T02:05:03;98306.53;;;25.13;45.15
75447;BME280;64024;55.820;37.574;2023-08-01T02:07:30;98308.91;;;25.15;45.07
75447;BME280;64024;55.820;37.574;2023-08-01T02:09:56;98306.66;;;25.17;45.03
75447;BME280;64024;55.820;37.574;2023-08-01T02:12:22;98312.56;;;25.19;45.13
75447;BME280;64024;55.820;37.574;2023-08-01T02:14:49;98309.53;;;25.20;45.12
75447;BME280;64024;55.820;37.574;2023-08-01T02:17:16;98307.28;;;25.22;45.16
75447;BME280;64024;55.820;37.574;2023-08-01T02:19:42;98305.03;;;25.24;45.09
75447;BME280;64024;55.820;37.574;2023-08-01T02:22:08;98303.56;;;25.27;45.07
75447;BME280;64024;55.820;37.574;2023-08-01T02:24:34;98305.97;;;25.28;45.02
75447;BME280;64024;55.820;37.574;2023-08-01T02:27:00;98305.66;;;25.30;44.98
75447;BME280;64024;55.820;37.574;2023-08-01T02:29:27;98306.09;;;25.32;44.89
75447;BME280;64024;55.820;37.574;2023-08-01T02:31:54;98304.66;;;25.35;45.00
75447;BME280;64024;55.820;37.574;2023-08-01T02:34:20;98311.84;;;25.39;44.98
75447;BME280;64024;55.820;37.574;2023-08-01T02:36:47;98314.22;;;25.41;44.86
75447;BME280;64024;55.820;37.574;2023-08-01T02:39:12;98293.72;;;25.43;44.82
75447;BME280;64024;55.820;37.574;2023-08-01T02:41:39;98298.53;;;25.46;45.07
75447;BME280;64024;55.820;37.574;2023-08-01T02:44:05;98306.00;;;25.49;44.94
75447;BME280;64024;55.820;37.574;2023-08-01T02:46:31;98306.16;;;25.53;45.10
75447;BME280;64024;55.820;37.574;2023-08-01T02:48:59;98301.66;;;25.57;45.10
75447;BME280;64024;55.820;37.574;2023-08-01T02:51:25;98301.78;;;25.61;44.78
75447;BME280;64024;55.820;37.574;2023-08-01T02:53:52;98307.38;;;25.64;44.98
75447;BME280;64024;55.820;37.574;2023-08-01T02:56:18;98303.19;;;25.67;44.77
75447;BME280;64024;55.820;37.574;2023-08-01T02:58:44;98314.19;;;25.70;44.92
75447;BME280;64024;55.820;37.574;2023-08-01T03:01:11;98308.91;;;25.74;45.04
75447;BME280;64024;55.820;37.574;2023-08-01T03:03:39;98318.03;;;25.78;44.76
75447;BME280;64024;55.820;37.574;2023-08-01T03:06:05;98311.13;;;25.81;44.96
75447;BME280;64024;55.820;37.574;2023-08-01T03:08:33;98317.50;;;25.85;44.81
75447;BME280;64024;55.820;37.574;2023-08-01T03:10:59;98323.09;;;25.88;44.99
75447;BME280;64024;55.820;37.574;2023-08-01T03:13:26;98319.69;;;25.91;44.94
75447;BME280;64024;55.820;37.574;2023-08-01T03:15:53;98316.31;;;25.94;44.99
75447;BME280;64024;55.820;37.574;2023-08-01T03:18:19;98318.03;;;25.99;44.57
75447;BME280;64024;55.820;37.574;2023-08-01T03:20:45;98322.81;;;26.02;44.66
75447;BME280;64024;55.820;37.574;2023-08-01T03:23:11;98317.50;;;26.06;45.00
75447;BME280;64024;55.820;37.574;2023-08-01T03:25:38;98322.75;;;26.11;44.94
75447;BME280;64024;55.820;37.574;2023-08-01T03:28:04;98321.31;;;26.13;44.71
75447;BME280;64024;55.820;37.574;2023-08-01T03:30:34;98324.94;;;26.17;44.77
75447;BME280;64024;55.820;37.574;2023-08-01T03:33:04;98331.66;;;26.20;44.57
75447;BME280;64024;55.820;37.574;2023-08-01T03:35:31;98329.84;;;26.24;44.69
75447;BME280;64024;55.820;37.574;2023-08-01T03:37:59;98339.75;;;26.28;44.27
75447;BME280;64024;55.820;37.574;2023-08-01T03:40:24;98332.84;;;26.31;44.12
75447;BME280;64024;55.820;37.574;2023-08-01T03:42:51;98334.91;;;26.34;43.80
75447;BME280;64024;55.820;37.574;2023-08-01T03:45:16;98340.94;;;26.40;43.97
75447;BME280;64024;55.820;37.574;2023-08-01T03:47:43;98335.97;;;26.42;43.58
75447;BME280;64024;55.820;37.574;2023-08-01T03:50:10;98348.59;;;26.46;43.74
75447;BME280;64024;55.820;37.574;2023-08-01T03:52:36;98338.94;;;26.49;43.97
75447;BME280;64024;55.820;37.574;2023-08-01T03:55:02;98343.75;;;26.52;43.86
75447;BME280;64024;55.820;37.574;2023-08-01T03:57:28;98352.03;;;26.56;43.81
75447;BME280;64024;55.820;37.574;2023-08-01T03:59:56;98346.72;;;26.59;43.76
75447;BME280;64024;55.820;37.574;2023-08-01T04:02:22;98346.03;;;26.62;44.08
75447;BME280;64024;55.820;37.574;2023-08-01T04:04:49;98351.63;;;26.66;43.97
75447;BME280;64024;55.820;37.574;2023-08-01T04:07:15;98354.47;;;26.69;44.08
75447;BME280;64024;55.820;37.574;2023-08-01T04:09:41;98354.59;;;26.73;43.88
75447;BME280;64024;55.820;37.574;2023-08-01T04:12:08;98352.00;;;26.76;43.75
75447;BME280;64024;55.820;37.574;2023-08-01T04:14:35;98359.81;;;26.78;43.19
75447;BME280;64024;55.820;37.574;2023-08-01T04:17:01;98355.97;;;26.79;43.19
75447;BME280;64024;55.820;37.574;2023-08-01T04:19:27;98363.03;;;26.80;42.80
75447;BME280;64024;55.820;37.574;2023-08-01T04:21:55;98355.66;;;26.81;42.15
75447;BME280;64024;55.820;37.574;2023-08-01T04:24:21;98359.97;;;26.82;42.15
75447;BME280;64024;55.820;37.574;2023-08-01T04:26:51;98363.16;;;26.84;42.28
75447;BME280;64024;55.820;37.574;2023-08-01T04:29:18;98362.81;;;26.85;41.96
75447;BME280;64024;55.820;37.574;2023-08-01T04:31:44;98358.63;;;26.88;41.99
75447;BME280;64024;55.820;37.574;2023-08-01T04:34:11;98353.63;;;26.90;42.19
75447;BME280;64024;55.820;37.574;2023-08-01T04:36:37;98356.00;;;26.91;42.51
75447;BME280;64024;55.820;37.574;2023-08-01T04:39:05;98351.00;;;26.93;42.32
75447;BME280;64024;55.820;37.574;2023-08-01T04:41:32;98351.47;;;26.95;42.96
75447;BME280;64024;55.820;37.574;2023-08-01T04:43:59;98355.44;;;26.98;42.99
75447;BME280;64024;55.820;37.574;2023-08-01T04:46:25;98358.66;;;27.00;42.91
75447;BME280;64024;55.820;37.574;2023-08-01T04:48:52;98356.72;;;27.00;42.96
75447;BME280;64024;55.820;37.574;2023-08-01T04:51:19;98356.84;;;27.04;42.69
75447;BME280;64024;55.820;37.574;2023-08-01T04:53:46;98356.63;;;27.09;42.35
75447;BME280;64024;55.820;37.574;2023-08-01T04:56:12;98361.41;;;27.12;41.20
75447;BME280;64024;55.820;37.574;2023-08-01T04:58:39;98355.63;;;27.14;41.13
75447;BME280;64024;55.820;37.574;2023-08-01T05:01:05;98354.13;;;27.16;40.05
75447;BME280;64024;55.820;37.574;2023-08-01T05:03:31;98353.81;;;27.18;39.37
75447;BME280;64024;55.820;37.574;2023-08-01T05:05:57;98359.72;;;27.20;39.51
75447;BME280;64024;55.820;37.574;2023-08-01T05:08:23;98359.72;;;27.20;38.86
75447;BME280;64024;55.820;37.574;2023-08-01T05:10:50;98359.72;;;27.20;38.71
75447;BME280;64024;55.820;37.574;2023-08-01T05:13:17;98358.91;;;27.19;38.36
75447;BME280;64024;55.820;37.574;2023-08-01T05:15:47;98365.63;;;27.22;38.21
75447;BME280;64024;55.820;37.574;2023-08-01T05:18:16;98370.75;;;27.23;37.61
75447;BME280;64024;55.820;37.574;2023-08-01T05:20:43;98369.97;;;27.23;37.72
75447;BME280;64024;55.820;37.574;2023-08-01T05:23:09;98369.16;;;27.22;37.34
75447;BME280;64024;55.820;37.574;2023-08-01T05:25:35;98371.88;;;27.22;37.65
75447;BME280;64024;55.820;37.574;2023-08-01T05:28:02;98369.16;;;27.22;37.55
75447;BME280;64024;55.820;37.574;2023-08-01T05:30:29;98373.81;;;27.22;37.86
75447;BME280;64024;55.820;37.574;2023-08-01T05:32:55;98373.47;;;27.23;38.58
75447;BME280;64024;55.820;37.574;2023-08-01T05:35:22;98379.06;;;27.27;39.38
75447;BME280;64024;55.820;37.574;2023-08-01T05:37:49;98385.91;;;27.33;39.38
75447;BME280;64024;55.820;37.574;2023-08-01T05:40:15;98373.84;;;27.46;39.48
75447;BME280;64024;55.820;37.574;2023-08-01T05:42:42;98377.38;;;27.47;39.97
75447;BME280;64024;55.820;37.574;2023-08-01T05:45:10;98366.56;;;27.50;40.18
75447;BME280;64024;55.820;37.574;2023-08-01T05:47:37;98374.06;;;27.54;40.59
75447;BME280;64024;55.820;37.574;2023-08-01T05:50:06;98374.19;;;27.57;40.18
75447;BME280;64024;55.820;37.574;2023-08-01T05:52:34;98382.03;;;27.59;39.79
75447;BME280;64024;55.820;37.574;2023-08-01T05:55:00;98372.72;;;27.60;38.81
75447;BME280;64024;55.820;37.574;2023-08-01T05:57:26;98381.25;;;27.58;38.55
75447;BME280;64024;55.820;37.574;2023-08-01T05:59:52;98374.19;;;27.57;37.97
75447;BME280;64024;55.820;37.574;2023-08-01T06:02:19;98382.72;;;27.56;37.78
75447;BME280;64024;55.820;37.574;2023-08-01T06:04:45;98377.13;;;27.52;37.61
75447;BME280;64024;55.820;37.574;2023-08-01T06:07:14;98378.16;;;27.47;37.52
75447;BME280;64024;55.820;37.574;2023-08-01T06:09:43;98392.47;;;27.44;37.47
75447;BME280;64024;55.820;37.574;2023-08-01T06:12:11;98390.91;;;27.43;37.70
75447;BME280;64024;55.820;37.574;2023-08-01T06:14:42;98387.72;;;27.41;38.34
75447;BME280;64024;55.820;37.574;2023-08-01T06:17:08;98394.19;;;27.49;38.08
75447;BME280;64024;55.820;37.574;2023-08-01T06:19:34;98391.34;;;27.45;38.24
75447;BME280;64024;55.820;37.574;2023-08-01T06:22:00;98391.25;;;27.42;38.16
75447;BME280;64024;55.820;37.574;2023-08-01T06:24:27;98392.72;;;27.39;38.19
75447;BME280;64024;55.820;37.574;2023-08-01T06:26:53;98395.69;;;27.46;38.67
75447;BME280;64024;55.820;37.574;2023-08-01T06:29:20;98399.09;;;27.43;38.27
75447;BME280;64024;55.820;37.574;2023-08-01T06:31:47;98395.44;;;27.39;38.49
75447;BME280;64024;55.820;37.574;2023-08-01T06:34:15;98391.44;;;27.37;37.99
75447;BME280;64024;55.820;37.574;2023-08-01T06:36:41;98396.13;;;27.36;38.38
75447;BME280;64024;55.820;37.574;2023-08-01T06:39:08;98390.66;;;27.36;38.33
75447;BME280;64024;55.820;37.574;2023-08-01T06:41:34;98391.78;;;27.35;38.27
75447;BME280;64024;55.820;37.574;2023-08-01T06:44:01;98394.88;;;27.34;37.68
75447;BME280;64024;55.820;37.574;2023-08-01T06:46:29;98393.63;;;27.31;37.74
75447;BME280;64024;55.820;37.574;2023-08-01T06:48:57;98394.75;;;27.30;38.00
75447;BME280;64024;55.820;37.574;2023-08-01T06:51:23;98397.13;;;27.32;38.00
75447;BME280;64024;55.820;37.574;2023-08-01T06:53:50;98393.25;;;27.33;38.89
75447;BME280;64024;55.820;37.574;2023-08-01T06:56:17;98394.88;;;27.34;38.72
75447;BME280;64024;55.820;37.574;2023-08-01T06:58:42;98395.22;;;27.44;39.03
75447;BME280;64024;55.820;37.574;2023-08-01T07:01:09;98401.03;;;27.43;38.98
75447;BME280;64024;55.820;37.574;2023-08-01T07:03:35;98405.69;;;27.42;39.38
75447;BME280;64024;55.820;37.574;2023-08-01T07:06:02;98395.56;;;27.43;39.46
75447;BME280;64024;55.820;37.574;2023-08-01T07:08:30;98399.53;;;27.45;39.71
75447;BME280;64024;55.820;37.574;2023-08-01T07:10:58;98393.88;;;27.50;39.36
75447;BME280;64024;55.820;37.574;2023-08-01T07:13:25;98392.03;;;27.55;39.92
75447;BME280;64024;55.820;37.574;2023-08-01T07:15:53;98396.00;;;27.57;39.56
75447;BME280;64024;55.820;37.574;2023-08-01T07:18:21;98387.16;;;27.60;39.72
75447;BME280;64024;55.820;37.574;2023-08-01T07:20:47;98394.19;;;27.61;39.50
75447;BME280;64024;55.820;37.574;2023-08-01T07:23:13;98386.13;;;27.65;39.39
75447;BME280;64024;55.820;37.574;2023-08-01T07:25:40;98395.22;;;27.69;39.44
75447;BME280;64024;55.820;37.574;2023-08-01T07:28:06;98397.28;;;27.72;39.51
75447;BME280;64024;55.820;37.574;2023-08-01T07:30:32;98393.66;;;27.80;39.74
75447;BME280;64024;55.820;37.574;2023-08-01T07:32:59;98398.31;;;27.80;39.60
75447;BME280;64024;55.820;37.574;2023-08-01T07:35:25;98391.25;;;27.79;39.58
75447;BME280;64024;55.820;37.574;2023-08-01T07:37:52;98396.72;;;27.79;39.20
75447;BME280;64024;55.820;37.574;2023-08-01T07:40:19;98395.91;;;27.78;39.24
75447;BME280;64024;55.820;37.574;2023-08-01T07:42:46;98396.72;;;27.79;38.70
75447;BME280;64024;55.820;37.574;2023-08-01T07:45:12;98391.97;;;27.75;38.30
75447;BME280;64024;55.820;37.574;2023-08-01T07:47:39;98392.59;;;27.72;38.16
75447;BME280;64024;55.820;37.574;2023-08-01T07:50:06;98389.63;;;27.65;37.65
75447;BME280;64024;55.820;37.574;2023-08-01T07:52:32;98386.00;;;27.61;37.37
75447;BME280;64024;55.820;37.574;2023-08-01T07:54:59;98391.34;;;27.58;37.91
75447;BME280;64024;55.820;37.574;2023-08-01T07:57:25;98394.31;;;27.65;38.13
75447;BME280;64024;55.820;37.574;2023-08-01T07:59:52;98390.34;;;27.62;38.25
75447;BME280;64024;55.820;37.574;2023-08-01T08:02:18;98389.53;;;27.62;38.79
75447;BME280;64024;55.820;37.574;2023-08-01T08:04:44;98380.53;;;27.61;38.57
75447;BME280;64024;55.820;37.574;2023-08-01T08:07:11;98381.34;;;27.62;38.70
75447;BME280;64024;55.820;37.574;2023-08-01T08:09:38;98386.47;;;27.63;39.34
75447;BME280;64024;55.820;37.574;2023-08-01T08:12:05;98384.53;;;27.64;39.33
75447;BME280;64024;55.820;37.574;2023-08-01T08:14:32;98383.38;;;27.65;39.48
75447;BME280;64024;55.820;37.574;2023-08-01T08:16:58;98378.41;;;27.67;39.53
75447;BME280;64024;55.820;37.574;2023-08-01T08:19:25;98383.16;;;27.70;39.39
75447;BME280;64024;55.820;37.574;2023-08-01T08:21:51;98376.22;;;27.72;39.00
75447;BME280;64024;55.820;37.574;2023-08-01T08:24:19;98380.25;;;27.75;39.02
75447;BME280;64024;55.820;37.574;2023-08-01T08:26:45;98382.63;;;27.77;39.21
75447;BME280;64024;55.820;37.574;2023-08-01T08:29:11;98383.88;;;27.79;38.77
75447;BME280;64024;55.820;37.574;2023-08-01T08:31:38;98387.06;;;27.81;38.62
75447;BME280;64024;55.820;37.574;2023-08-01T08:34:04;98376.59;;;27.83;38.62
75447;BME280;64024;55.820;37.574;2023-08-01T08:36:31;98387.59;;;27.87;38.58
75447;BME280;64024;55.820;37.574;2023-08-01T08:38:57;98377.50;;;27.87;38.85
75447;BME280;64024;55.820;37.574;2023-08-01T08:41:26;98382.97;;;27.87;37.96
75447;BME280;64024;55.820;37.574;2023-08-01T08:43:56;98380.13;;;27.84;37.45
75447;BME280;64024;55.820;37.574;2023-08-01T08:46:29;98378.88;;;27.81;37.13
75447;BME280;64024;55.820;37.574;2023-08-01T08:48:56;98377.50;;;27.75;36.71
75447;BME280;64024;55.820;37.574;2023-08-01T08:51:22;98376.81;;;27.78;37.00
75447;BME280;64024;55.820;37.574;2023-08-01T08:53:51;98376.00;;;27.65;37.16
75447;BME280;64024;55.820;37.574;2023-08-01T08:56:21;98373.06;;;27.58;37.62
75447;BME280;64024;55.820;37.574;2023-08-01T08:58:48;98367.13;;;27.56;37.71
75447;BME280;64024;55.820;37.574;2023-08-01T09:01:17;98372.25;;;27.58;38.57
75447;BME280;64024;55.820;37.574;2023-08-01T09:03:43;98380.09;;;27.59;38.40
75447;BME280;64024;55.820;37.574;2023-08-01T09:06:27;98377.81;;;27.61;38.46
75447;BME280;64024;55.820;37.574;2023-08-01T09:09:09;98377.94;;;27.65;38.70
75447;BME280;64024;55.820;37.574;2023-08-01T09:11:51;98376.78;;;27.66;38.22
75447;BME280;64024;55.820;37.574;2023-08-01T09:14:18;98372.94;;;27.67;38.64
75447;BME280;64024;55.820;37.574;2023-08-01T09:16:46;98377.69;;;27.70;38.51
75447;BME280;64024;55.820;37.574;2023-08-01T09:19:20;98374.31;;;27.73;38.71
75447;BME280;64024;55.820;37.574;2023-08-01T09:21:48;98377.94;;;27.77;38.71
75447;BME280;64024;55.820;37.574;2023-08-01T09:24:18;98375.34;;;27.81;38.72
75447;BME280;64024;55.820;37.574;2023-08-01T09:26:46;98368.06;;;27.85;38.40
75447;BME280;64024;55.820;37.574;2023-08-01T09:29:15;98362.59;;;27.85;37.63
75447;BME280;64024;55.820;37.574;2023-08-01T09:31:43;98356.34;;;27.84;37.56
75447;BME280;64024;55.820;37.574;2023-08-01T09:34:21;98369.19;;;27.84;37.04
75447;BME280;64024;55.820;37.574;2023-08-01T09:36:48;98363.94;;;27.79;36.74
75447;BME280;64024;55.820;37.574;2023-08-01T09:39:20;98355.69;;;27.75;37.22
75447;BME280;64024;55.820;37.574;2023-08-01T09:44:23;98364.75;;;27.67;37.30
75447;BME280;64024;55.820;37.574;2023-08-01T09:46:56;98366.22;;;27.64;37.83
75447;BME280;64024;55.820;37.574;2023-08-01T09:49:23;98362.81;;;27.67;37.95
75447;BME280;64024;55.820;37.574;2023-08-01T09:51:50;98361.78;;;27.72;38.55
75447;BME280;64024;55.820;37.574;2023-08-01T09:54:17;98363.16;;;27.78;38.93
75447;BME280;64024;55.820;37.574;2023-08-01T09:56:49;98347.78;;;27.86;39.62
75447;BME280;64024;55.820;37.574;2023-08-01T09:59:24;98349.94;;;27.92;39.68
75447;BME280;64024;55.820;37.574;2023-08-01T10:01:51;98352.91;;;27.99;39.45
75447;BME280;64024;55.820;37.574;2023-08-01T10:04:24;98346.50;;;28.08;39.19
75447;BME280;64024;55.820;37.574;2023-08-01T10:06:58;98347.84;;;28.14;39.13
75447;BME280;64024;55.820;37.574;2023-08-01T10:09:25;98342.94;;;28.19;39.11
75447;BME280;64024;55.820;37.574;2023-08-01T10:11:56;98344.53;;;28.20;38.01
75447;BME280;64024;55.820;37.574;2023-08-01T10:14:22;98347.59;;;28.19;37.23
75447;BME280;64024;55.820;37.574;2023-08-01T10:16:52;98349.09;;;28.16;36.47
75447;BME280;64024;55.820;37.574;2023-08-01T10:19:19;98346.59;;;28.11;36.10
75447;BME280;64024;55.820;37.574;2023-08-01T10:21:47;98336.59;;;28.03;35.96
75447;BME280;64024;55.820;37.574;2023-08-01T10:24:13;98335.63;;;27.95;36.14
75447;BME280;64024;55.820;37.574;2023-08-01T10:26:41;98346.31;;;27.88;35.71
75447;BME280;64024;55.820;37.574;2023-08-01T10:29:10;98347.69;;;27.82;36.44
75447;BME280;64024;55.820;37.574;2023-08-01T10:31:36;98344.84;;;27.79;36.67
75447;BME280;64024;55.820;37.574;2023-08-01T10:34:13;98342.09;;;27.79;37.19
75447;BME280;64024;55.820;37.574;2023-08-01T10:36:39;98339.38;;;27.79;37.14
75447;BME280;64024;55.820;37.574;2023-08-01T10:39:05;98335.06;;;27.78;37.65
75447;BME280;64024;55.820;37.574;2023-08-01T10:41:34;98332.34;;;27.78;37.29
75447;BME280;64024;55.820;37.574;2023-08-01T10:44:10;98330.41;;;27.78;37.84
75447;BME280;64024;55.820;37.574;2023-08-01T10:46:57;98342.56;;;27.81;37.89
75447;BME280;64024;55.820;37.574;2023-08-01T10:49:39;98336.44;;;27.84;37.82
75447;BME280;64024;55.820;37.574;2023-08-01T10:52:25;98333.81;;;27.87;38.08
75447;BME280;64024;55.820;37.574;2023-08-01T10:55:02;98327.19;;;27.88;37.93
75447;BME280;64024;55.820;37.574;2023-08-01T10:57:30;98339.72;;;27.89;37.85
75447;BME280;64024;55.820;37.574;2023-08-01T10:59:58;98331.09;;;27.87;37.11
75447;BME280;64024;55.820;37.574;2023-08-01T11:02:28;98330.63;;;27.85;37.14
75447;BME280;64024;55.820;37.574;2023-08-01T11:04:59;98328.56;;;27.82;36.87
75447;BME280;64024;55.820;37.574;2023-08-01T11:07:26;98327.34;;;27.80;36.71
75447;BME280;64024;55.820;37.574;2023-08-01T11:10:26;98328.44;;;27.79;36.88
75447;BME280;64024;55.820;37.574;2023-08-01T11:12:55;98331.91;;;27.75;36.52
75447;BME280;64024;55.820;37.574;2023-08-01T11:15:22;98337.22;;;27.72;36.42
75447;BME280;64024;55.820;37.574;2023-08-01T11:17:50;98330.84;;;27.68;36.38
75447;BME280;64024;55.820;37.574;2023-08-01T11:20:18;98332.31;;;27.65;36.67
75447;BME280;64024;55.820;37.574;2023-08-01T11:22:53;98332.00;;;27.67;37.15
75447;BME280;64024;55.820;37.574;2023-08-01T11:25:38;98331.75;;;27.72;37.63
75447;BME280;64024;55.820;37.574;2023-08-01T11:30:33;98334.72;;;27.79;38.06
75447;BME280;64024;55.820;37.574;2023-08-01T11:33:01;98329.03;;;27.84;38.25
75447;BME280;64024;55.820;37.574;2023-08-01T11:35:29;98322.06;;;27.87;38.10
75447;BME280;64024;55.820;37.574;2023-08-01T11:37:56;98323.31;;;27.89;38.34
75447;BME280;64024;55.820;37.574;2023-08-01T11:40:24;98324.91;;;27.90;37.62
75447;BME280;64024;55.820;37.574;2023-08-01T11:42:56;98315.13;;;27.89;36.95
75447;BME280;64024;55.820;37.574;2023-08-01T11:45:24;98319.00;;;27.88;37.04
75447;BME280;64024;55.820;37.574;2023-08-01T11:47:51;98315.03;;;27.86;36.54
75447;BME280;64024;55.820;37.574;2023-08-01T11:50:22;98311.38;;;27.82;36.42
75447;BME280;64024;55.820;37.574;2023-08-01T11:52:51;98307.75;;;27.78;36.31
75447;BME280;64024;55.820;37.574;2023-08-01T11:55:23;98313.09;;;27.74;35.96
75447;BME280;64024;55.820;37.574;2023-08-01T11:57:54;98315.25;;;27.68;35.87
75447;BME280;64024;55.820;37.574;2023-08-01T12:00:23;98311.97;;;27.63;35.81
75447;BME280;64024;55.820;37.574;2023-08-01T12:02:50;98309.13;;;27.59;35.95
75447;BME280;64024;55.820;37.574;2023-08-01T12:05:23;98315.63;;;27.67;36.15
75447;BME280;64024;55.820;37.574;2023-08-01T12:07:49;98297.19;;;27.64;36.58
75447;BME280;64024;55.820;37.574;2023-08-01T12:10:16;98300.69;;;27.64;37.14
75447;BME280;64024;55.820;37.574;2023-08-01T12:12:46;98300.81;;;27.68;37.63
75447;BME280;64024;55.820;37.574;2023-08-01T12:15:16;98294.31;;;27.72;37.45
75447;BME280;64024;55.820;37.574;2023-08-01T12:17:42;98289.44;;;27.78;37.94
75447;BME280;64024;55.820;37.574;2023-08-01T12:20:09;98293.53;;;27.84;37.68
75447;BME280;64024;55.820;37.574;2023-08-01T12:22:35;98289.31;;;27.87;37.45
75447;BME280;64024;55.820;37.574;2023-08-01T12:25:02;98285.44;;;27.88;37.05
75447;BME280;64024;55.820;37.574;2023-08-01T12:27:28;98286.25;;;27.88;36.79
75447;BME280;64024;55.820;37.574;2023-08-01T12:29:54;98279.53;;;27.86;36.76
75447;BME280;64024;55.820;37.574;2023-08-01T12:32:20;98281.03;;;27.83;36.54
75447;BME280;64024;55.820;37.574;2023-08-01T12:34:47;98287.59;;;27.82;36.19
75447;BME280;64024;55.820;37.574;2023-08-01T12:37:13;98289.44;;;27.78;35.87
75447;BME280;64024;55.820;37.574;2023-08-01T12:39:39;98288.53;;;27.74;36.00
75447;BME280;64024;55.820;37.574;2023-08-01T12:42:05;98284.88;;;27.70;35.70
75447;BME280;64024;55.820;37.574;2023-08-01T12:44:32;98280.34;;;27.62;35.75
75447;BME280;64024;55.820;37.574;2023-08-01T12:46:59;98286.84;;;27.57;35.63
75447;BME280;64024;55.820;37.574;2023-08-01T12:49:26;98283.56;;;27.51;36.40
75447;BME280;64024;55.820;37.574;2023-08-01T12:51:51;98277.19;;;27.47;36.69
75447;BME280;64024;55.820;37.574;2023-08-01T12:54:18;98284.13;;;27.45;37.01
75447;BME280;64024;55.820;37.574;2023-08-01T12:56:44;98280.16;;;27.42;36.85